sensor_id;sensor_type;location;lat;lon;timestamp;temperature;humidity
12843;DHT22;35724;49.324;-123.118;2023-04-06T00:00:26;26.90;30.50
12843;DHT22;35724;49.324;-123.118;2023-04-06T00:10:33;26.90;32.20
12843;DHT22;35724;49.324;-123.118;2023-04-06T00:20:41;26.80;31.80
12843;DHT22;35724;49.324;-123.118;2023-04-06T00:30:48;26.70;32.10
12843;DHT22;35724;49.324;-123.118;2023-04-06T00:40:58;26.60;29.90
12843;DHT22;35724;49.324;-123.118;2023-04-06T00:51:07;26.60;30.90
12843;DHT22;35724;49.324;-123.118;2023-04-06T01:01:18;26.70;30.70
12843;DHT22;35724;49.324;-123.118;2023-04-06T01:11:28;26.50;30.10
12843;DHT22;35724;49.324;-123.118;2023-04-06T01:21:42;26.50;30.00
12843;DHT22;35724;49.324;-123.118;2023-04-06T01:32:20;26.50;30.00
12843;DHT22;35724;49.324;-123.118;2023-04-06T01:42:41;26.40;29.90
12843;DHT22;35724;49.324;-123.118;2023-04-06T01:52:54;26.40;29.90
12843;DHT22;35724;49.324;-123.118;2023-04-06T02:03:03;26.30;29.80
12843;DHT22;35724;49.324;-123.118;2023-04-06T02:13:13;26.30;29.70
12843;DHT22;35724;49.324;-123.118;2023-04-06T02:23:24;26.20;29.60
12843;DHT22;35724;49.324;-123.118;2023-04-06T02:33:34;26.20;29.50
12843;DHT22;35724;49.324;-123.118;2023-04-06T02:43:42;26.10;28.60
12843;DHT22;35724;49.324;-123.118;2023-04-06T02:53:59;26.00;28.40
12843;DHT22;35724;49.324;-123.118;2023-04-06T03:04:09;25.90;28.30
12843;DHT22;35724;49.324;-123.118;2023-04-06T03:25:45;26.10;29.90
12843;DHT22;35724;49.324;-123.118;2023-04-06T03:36:12;26.20;30.70
12843;DHT22;35724;49.324;-123.118;2023-04-06T03:46:24;26.40;30.80
12843;DHT22;35724;49.324;-123.118;2023-04-06T04:08:57;26.60;31.40
12843;DHT22;35724;49.324;-123.118;2023-04-06T04:19:35;26.70;32.90
12843;DHT22;35724;49.324;-123.118;2023-04-06T06:28:02;27.40;34.20
12843;DHT22;35724;49.324;-123.118;2023-04-06T06:38:10;27.40;33.90
12843;DHT22;35724;49.324;-123.118;2023-04-06T07:12:21;27.50;33.50
12843;DHT22;35724;49.324;-123.118;2023-04-06T07:22:31;27.60;33.40
12843;DHT22;35724;49.324;-123.118;2023-04-06T07:32:44;27.60;33.20
12843;DHT22;35724;49.324;-123.118;2023-04-06T07:43:01;27.60;33.20
12843;DHT22;35724;49.324;-123.118;2023-04-06T07:53:19;27.60;33.10
12843;DHT22;35724;49.324;-123.118;2023-04-06T08:03:39;27.60;33.00
12843;DHT22;35724;49.324;-123.118;2023-04-06T08:46:22;27.70;33.00
12843;DHT22;35724;49.324;-123.118;2023-04-06T08:56:38;27.70;33.00
12843;DHT22;35724;49.324;-123.118;2023-04-06T09:06:50;27.70;32.90
12843;DHT22;35724;49.324;-123.118;2023-04-06T09:27:48;27.80;32.90
12843;DHT22;35724;49.324;-123.118;2023-04-06T09:38:12;27.80;33.00
12843;DHT22;35724;49.324;-123.118;2023-04-06T09:48:26;27.90;33.10
12843;DHT22;35724;49.324;-123.118;2023-04-06T09:58:38;27.90;33.00
12843;DHT22;35724;49.324;-123.118;2023-04-06T10:09:04;27.90;33.10
12843;DHT22;35724;49.324;-123.118;2023-04-06T10:19:30;27.90;33.00
12843;DHT22;35724;49.324;-123.118;2023-04-06T10:40:21;28.00;33.10
12843;DHT22;35724;49.324;-123.118;2023-04-06T10:50:40;28.00;33.10
12843;DHT22;35724;49.324;-123.118;2023-04-06T11:01:22;28.10;33.10
12843;DHT22;35724;49.324;-123.118;2023-04-06T11:11:40;28.10;33.20
12843;DHT22;35724;49.324;-123.118;2023-04-06T11:22:07;28.10;33.10
12843;DHT22;35724;49.324;-123.118;2023-04-06T11:32:27;28.10;33.80
12843;DHT22;35724;49.324;-123.118;2023-04-06T11:42:39;28.10;33.20
12843;DHT22;35724;49.324;-123.118;2023-04-06T11:53:03;28.20;33.20
12843;DHT22;35724;49.324;-123.118;2023-04-06T12:03:15;28.20;33.20
12843;DHT22;35724;49.324;-123.118;2023-04-06T12:13:29;28.20;33.20
12843;DHT22;35724;49.324;-123.118;2023-04-06T12:23:41;28.30;33.30
12843;DHT22;35724;49.324;-123.118;2023-04-06T12:33:59;28.30;33.20
12843;DHT22;35724;49.324;-123.118;2023-04-06T12:44:22;28.30;33.20
12843;DHT22;35724;49.324;-123.118;2023-04-06T12:54:36;28.30;33.30
12843;DHT22;35724;49.324;-123.118;2023-04-06T13:04:50;28.30;33.20
12843;DHT22;35724;49.324;-123.118;2023-04-06T13:15:04;28.30;33.20
12843;DHT22;35724;49.324;-123.118;2023-04-06T13:25:16;28.40;33.20
12843;DHT22;35724;49.324;-123.118;2023-04-06T14:24:02;28.30;34.20
12843;DHT22;35724;49.324;-123.118;2023-04-06T14:34:15;28.30;37.70
12843;DHT22;35724;49.324;-123.118;2023-04-06T14:44:23;28.20;35.50
12843;DHT22;35724;49.324;-123.118;2023-04-06T14:54:33;27.90;33.50
12843;DHT22;35724;49.324;-123.118;2023-04-06T15:05:09;27.60;32.60
12843;DHT22;35724;49.324;-123.118;2023-04-06T15:15:17;27.30;32.80
12843;DHT22;35724;49.324;-123.118;2023-04-06T15:25:26;27.10;33.30
12843;DHT22;35724;49.324;-123.118;2023-04-06T15:35:40;26.80;34.00
12843;DHT22;35724;49.324;-123.118;2023-04-06T15:45:49;26.50;34.50
12843;DHT22;35724;49.324;-123.118;2023-04-06T15:56:31;26.50;34.60
12843;DHT22;35724;49.324;-123.118;2023-04-06T16:06:48;26.60;35.20
12843;DHT22;35724;49.324;-123.118;2023-04-06T16:16:55;26.80;35.20
12843;DHT22;35724;49.324;-123.118;2023-04-06T16:27:04;27.10;35.30
12843;DHT22;35724;49.324;-123.118;2023-04-06T16:37:11;27.20;35.70
12843;DHT22;35724;49.324;-123.118;2023-04-06T16:47:19;27.30;35.50
12843;DHT22;35724;49.324;-123.118;2023-04-06T16:57:27;27.40;35.70
12843;DHT22;35724;49.324;-123.118;2023-04-06T17:07:36;27.30;37.00
12843;DHT22;35724;49.324;-123.118;2023-04-06T17:17:48;27.40;36.50
12843;DHT22;35724;49.324;-123.118;2023-04-06T17:27:57;27.40;36.70
12843;DHT22;35724;49.324;-123.118;2023-04-06T17:38:04;27.20;35.70
12843;DHT22;35724;49.324;-123.118;2023-04-06T17:48:13;27.30;35.80
12843;DHT22;35724;49.324;-123.118;2023-04-06T17:58:20;27.10;36.10
12843;DHT22;35724;49.324;-123.118;2023-04-06T18:08:29;26.80;36.70
12843;DHT22;35724;49.324;-123.118;2023-04-06T18:18:36;26.60;37.00
12843;DHT22;35724;49.324;-123.118;2023-04-06T18:28:45;26.40;37.80
12843;DHT22;35724;49.324;-123.118;2023-04-06T18:38:52;26.30;38.20
12843;DHT22;35724;49.324;-123.118;2023-04-06T18:49:02;26.30;38.30
12843;DHT22;35724;49.324;-123.118;2023-04-06T18:59:24;26.00;38.80
12843;DHT22;35724;49.324;-123.118;2023-04-06T19:10:01;26.00;39.60
12843;DHT22;35724;49.324;-123.118;2023-04-06T19:20:19;26.00;40.40
12843;DHT22;35724;49.324;-123.118;2023-04-06T19:30:28;26.20;40.80
12843;DHT22;35724;49.324;-123.118;2023-04-06T19:40:35;26.20;40.80
12843;DHT22;35724;49.324;-123.118;2023-04-06T19:50:43;26.10;40.70
12843;DHT22;35724;49.324;-123.118;2023-04-06T20:00:50;25.90;40.90
12843;DHT22;35724;49.324;-123.118;2023-04-06T20:11:04;25.90;41.10
12843;DHT22;35724;49.324;-123.118;2023-04-06T20:21:11;25.60;40.90
12843;DHT22;35724;49.324;-123.118;2023-04-06T20:31:20;25.60;41.20
12843;DHT22;35724;49.324;-123.118;2023-04-06T20:41:31;25.80;41.00
12843;DHT22;35724;49.324;-123.118;2023-04-06T20:51:42;26.00;40.80
12843;DHT22;35724;49.324;-123.118;2023-04-06T21:01:55;26.00;41.50
12843;DHT22;35724;49.324;-123.118;2023-04-06T21:12:05;25.80;41.20
12843;DHT22;35724;49.324;-123.118;2023-04-06T21:22:13;25.70;42.00
12843;DHT22;35724;49.324;-123.118;2023-04-06T21:32:22;25.60;41.70
12843;DHT22;35724;49.324;-123.118;2023-04-06T21:42:29;25.70;41.60
12843;DHT22;35724;49.324;-123.118;2023-04-06T21:52:37;25.80;41.40
12843;DHT22;35724;49.324;-123.118;2023-04-06T22:02:44;25.80;41.50
12843;DHT22;35724;49.324;-123.118;2023-04-06T22:12:54;25.90;41.50
12843;DHT22;35724;49.324;-123.118;2023-04-06T22:23:03;26.00;42.00
12843;DHT22;35724;49.324;-123.118;2023-04-06T22:33:22;26.10;42.30
12843;DHT22;35724;49.324;-123.118;2023-04-06T22:43:33;26.20;42.40
12843;DHT22;35724;49.324;-123.118;2023-04-06T22:53:42;26.20;41.80
12843;DHT22;35724;49.324;-123.118;2023-04-06T23:03:52;26.20;41.80
12843;DHT22;35724;49.324;-123.118;2023-04-06T23:14:15;26.30;41.50
12843;DHT22;35724;49.324;-123.118;2023-04-06T23:24:23;26.30;41.50
12843;DHT22;35724;49.324;-123.118;2023-04-06T23:35:26;26.40;41.50
12843;DHT22;35724;49.324;-123.118;2023-04-06T23:45:33;26.40;41.70
12843;DHT22;35724;49.324;-123.118;2023-04-06T23:55:44;26.30;41.90
